Time;durP1;ratioP1;P1;durP2;ratioP2;P2;SDS_P1;SDS_P2;PMS_P1;PMS_P2;Temp;Humidity;BMP_temperature;BMP_pressure;BME280_temperature;BME280_humidity;BME280_pressure;Samples;Min_cycle;Max_cycle;Signal;HPM_P1;HPM_P2
2023/04/17 00:05:11;;;;;;;2.25;2.00;;;13.80;76.40;;;;;;10985004;32;20018;-71
2023/04/17 00:11:13;;;;;;;5.25;3.05;;;13.90;76.40;;;;;;10984906;32;20045;-71
2023/04/17 00:17:15;;;;;;;2.87;1.95;;;13.80;76.40;;;;;;10980807;32;20027;-71
2023/04/17 00:23:17;;;;;;;4.10;2.95;;;13.70;76.40;;;;;;10972015;32;20010;-71
2023/04/17 00:29:19;;;;;;;4.60;3.03;;;13.50;76.70;;;;;;10984519;32;20031;-71
2023/04/17 00:35:21;;;;;;;3.67;2.00;;;13.50;76.70;;;;;;10985169;32;20022;-71
2023/04/17 00:41:24;;;;;;;7.07;4.53;;;13.30;76.60;;;;;;10984249;32;20026;-71
2023/04/17 00:47:26;;;;;;;7.37;3.40;;;13.20;76.50;;;;;;10980858;32;20066;-70
2023/04/17 00:53:32;;;;;;;4.80;2.90;;;13.10;76.80;;;;;;10969721;32;20413;-71
2023/04/17 00:59:36;;;;;;;4.87;3.42;;;13.30;77.00;;;;;;11007667;32;20070;-70
2023/04/17 01:05:39;;;;;;;5.03;3.72;;;13.20;76.80;;;;;;11020983;32;20014;-70
2023/04/17 01:11:42;;;;;;;4.70;2.75;;;13.10;77.00;;;;;;11021245;32;20048;-71
2023/04/17 01:17:44;;;;;;;3.28;2.58;;;13.10;77.10;;;;;;11021177;32;20041;-70
2023/04/17 01:23:51;;;;;;;2.62;1.98;;;13.10;77.20;;;;;;11005793;32;20048;-71
2023/04/17 01:29:53;;;;;;;2.20;1.95;;;13.20;77.20;;;;;;11007555;32;20030;-71
2023/04/17 01:35:55;;;;;;;5.93;3.50;;;13.20;77.20;;;;;;11019314;32;20006;-71
2023/04/17 01:41:57;;;;;;;4.40;2.25;;;13.20;77.10;;;;;;11005498;32;20018;-71
2023/04/17 01:48:00;;;;;;;4.47;2.83;;;13.10;77.20;;;;;;10992555;32;20030;-71
2023/04/17 01:54:02;;;;;;;3.55;1.98;;;13.20;77.30;;;;;;11018739;32;20022;-71
2023/04/17 02:00:09;;;;;;;4.43;3.37;;;13.20;77.40;;;;;;11019521;32;20076;-71
2023/04/17 02:06:14;;;;;;;3.12;2.37;;;13.00;77.50;;;;;;11018189;32;20011;-70
2023/04/17 02:12:19;;;;;;;3.85;2.53;;;13.10;77.60;;;;;;11018618;32;20048;-71
2023/04/17 02:18:21;;;;;;;6.07;4.35;;;13.10;77.50;;;;;;11002768;32;20312;-71
2023/04/17 02:24:23;;;;;;;4.87;2.33;;;13.00;77.70;;;;;;11014709;32;20021;-71
2023/04/17 02:30:26;;;;;;;3.62;2.42;;;12.90;77.80;;;;;;11018462;32;20026;-71
2023/04/17 02:36:29;;;;;;;4.40;3.05;;;12.90;77.90;;;;;;11018753;32;20027;-71
2023/04/17 02:42:31;;;;;;;8.00;4.50;;;13.00;77.60;;;;;;11018382;32;20018;-71
2023/04/17 02:48:33;;;;;;;5.85;3.87;;;13.10;77.50;;;;;;11015067;32;20392;-71
2023/04/17 02:54:35;;;;;;;5.97;3.85;;;12.80;77.40;;;;;;11015805;32;20037;-71
2023/04/17 03:00:39;;;;;;;5.53;3.75;;;12.80;77.80;;;;;;11013848;32;20045;-71
2023/04/17 03:06:42;;;;;;;3.65;2.37;;;12.80;77.40;;;;;;11017823;32;20018;-71
2023/04/17 03:12:44;;;;;;;5.43;2.87;;;12.70;77.60;;;;;;11017630;32;20034;-71
2023/04/17 03:18:47;;;;;;;3.50;2.75;;;12.90;77.50;;;;;;11016525;32;20037;-71
2023/04/17 03:24:50;;;;;;;5.03;3.47;;;13.00;77.40;;;;;;11017646;32;20057;-71
2023/04/17 03:30:54;;;;;;;3.15;2.67;;;13.20;77.40;;;;;;11016829;32;20044;-71
2023/04/17 03:36:57;;;;;;;3.85;3.03;;;13.20;77.40;;;;;;11016088;32;20053;-71
2023/04/17 03:43:00;;;;;;;5.40;2.62;;;13.20;77.60;;;;;;11017686;32;20037;-71
2023/04/17 03:49:02;;;;;;;3.78;2.92;;;13.20;77.50;;;;;;11019420;32;20057;-71
2023/04/17 03:55:06;;;;;;;3.28;2.47;;;13.20;77.70;;;;;;11018849;32;20010;-71
2023/04/17 04:01:09;;;;;;;4.18;2.97;;;13.20;77.80;;;;;;11022862;32;20014;-71
2023/04/17 04:07:13;;;;;;;5.87;3.33;;;12.90;77.80;;;;;;11008444;32;20370;-71
2023/04/17 04:13:16;;;;;;;3.78;2.45;;;12.80;77.90;;;;;;11022259;32;20022;-71
2023/04/17 04:19:20;;;;;;;3.35;2.97;;;12.90;77.90;;;;;;11023222;32;20023;-71
2023/04/17 04:25:22;;;;;;;4.07;3.22;;;12.90;77.80;;;;;;11023022;32;20411;-71
2023/04/17 04:31:28;;;;;;;3.75;2.70;;;12.80;77.80;;;;;;11021513;32;20049;-70
2023/04/17 04:37:31;;;;;;;7.00;3.60;;;12.80;78.10;;;;;;11020777;32;20432;-71
2023/04/17 04:43:33;;;;;;;4.75;3.03;;;12.80;78.00;;;;;;11021191;32;20010;-71
2023/04/17 04:49:36;;;;;;;5.97;2.85;;;12.80;78.20;;;;;;11021367;32;20026;-71
2023/04/17 04:55:38;;;;;;;2.58;1.87;;;12.80;78.30;;;;;;11020663;32;20041;-71
2023/04/17 05:01:40;;;;;;;3.62;2.20;;;12.90;78.30;;;;;;11007267;32;20049;-71
2023/04/17 05:07:43;;;;;;;4.43;2.33;;;12.90;78.40;;;;;;11005834;32;20060;-71
2023/04/17 05:13:45;;;;;;;4.53;2.75;;;13.00;78.50;;;;;;10991939;32;20068;-71
2023/04/17 05:19:48;;;;;;;2.72;2.12;;;13.00;78.50;;;;;;11007212;32;20037;-71
2023/04/17 05:25:50;;;;;;;5.50;3.47;;;13.10;78.50;;;;;;11019700;32;20022;-71
2023/04/17 05:31:53;;;;;;;3.47;2.53;;;13.10;78.40;;;;;;11019421;32;20045;-71
2023/04/17 05:37:57;;;;;;;5.68;3.58;;;13.20;78.40;;;;;;11020137;32;20462;-71
2023/04/17 05:43:59;;;;;;;3.67;2.33;;;13.20;78.40;;;;;;11019118;32;20036;-71
2023/04/17 05:50:02;;;;;;;3.80;2.75;;;13.20;78.20;;;;;;11018338;32;20026;-73
2023/04/17 05:56:04;;;;;;;7.03;5.95;;;13.20;78.40;;;;;;11019867;32;20380;-73
2023/04/17 06:02:08;;;;;;;7.37;4.57;;;13.30;78.60;;;;;;11017593;32;20029;-73
2023/04/17 06:08:10;;;;;;;4.57;3.22;;;13.50;78.90;;;;;;10982895;32;20034;-73
2023/04/17 06:14:12;;;;;;;9.07;7.05;;;13.50;78.80;;;;;;10963581;32;20045;-73
2023/04/17 06:20:15;;;;;;;9.00;6.28;;;13.40;79.00;;;;;;10978530;32;20018;-72
2023/04/17 06:26:17;;;;;;;7.15;4.78;;;13.10;79.10;;;;;;10980109;32;20054;-72
2023/04/17 06:32:19;;;;;;;8.35;6.30;;;13.10;79.60;;;;;;10979370;32;20022;-72
2023/04/17 06:38:22;;;;;;;6.97;5.65;;;13.30;80.20;;;;;;10977277;32;20022;-72
2023/04/17 06:44:24;;;;;;;4.40;3.28;;;13.70;80.20;;;;;;10979811;32;20040;-71
2023/04/17 06:50:28;;;;;;;6.87;5.18;;;13.80;79.90;;;;;;10979884;32;20034;-71
2023/04/17 06:56:30;;;;;;;6.55;4.82;;;13.80;80.20;;;;;;10965757;32;20049;-71
2023/04/17 07:02:32;;;;;;;5.07;3.97;;;14.10;80.50;;;;;;10979866;32;20014;-71
2023/04/17 07:08:34;;;;;;;7.10;4.35;;;14.20;80.30;;;;;;10979669;32;20041;-71
2023/04/17 07:14:37;;;;;;;5.32;3.62;;;14.00;80.60;;;;;;10979079;32;20049;-71
2023/04/17 07:20:39;;;;;;;4.05;3.05;;;14.00;80.80;;;;;;10964766;32;20384;-71
2023/04/17 07:26:42;;;;;;;7.57;4.47;;;14.20;81.10;;;;;;10983839;32;20023;-71
2023/04/17 07:32:44;;;;;;;8.93;3.67;;;14.40;81.20;;;;;;10986084;32;20018;-71
2023/04/17 07:38:46;;;;;;;3.40;2.67;;;14.70;81.30;;;;;;10971767;32;20031;-71
2023/04/17 07:44:48;;;;;;;5.47;3.47;;;14.90;81.30;;;;;;10986473;32;20023;-71
2023/04/17 07:50:50;;;;;;;6.07;4.35;;;15.00;81.30;;;;;;10767466;27;7013070;-71
2023/04/17 07:56:56;;;;;;;6.97;3.97;;;15.10;81.40;;;;;;10948365;32;20049;-71
2023/04/17 08:02:58;;;;;;;4.25;2.67;;;15.20;81.50;;;;;;10947526;32;20011;-71
2023/04/17 08:09:01;;;;;;;4.28;2.75;;;15.30;81.20;;;;;;10947435;32;20057;-73
2023/04/17 08:15:03;;;;;;;3.50;2.90;;;15.30;81.40;;;;;;10947253;32;20011;-73
2023/04/17 08:21:06;;;;;;;6.45;3.97;;;15.40;81.40;;;;;;10943068;32;20023;-73
2023/04/17 08:27:09;;;;;;;4.12;2.65;;;15.60;81.50;;;;;;10946141;32;20038;-73
2023/04/17 08:33:12;;;;;;;5.43;3.85;;;15.70;81.40;;;;;;10941774;32;20069;-73
2023/04/17 08:39:15;;;;;;;4.32;2.33;;;15.90;81.00;;;;;;10947653;32;20007;-73
2023/04/17 08:45:51;;;;;;;3.62;2.15;;;15.90;80.00;;;;;;10946253;32;20080;-73
2023/04/17 08:51:53;;;;;;;4.18;2.90;;;16.10;80.40;;;;;;10945688;32;20027;-73
2023/04/17 08:57:58;;;;;;;5.03;2.58;;;16.50;80.50;;;;;;10945756;32;20341;-73
2023/04/17 09:04:00;;;;;;;3.12;2.28;;;16.70;80.40;;;;;;10945553;32;20034;-74
2023/04/17 09:10:02;;;;;;;2.00;1.58;;;16.90;80.00;;;;;;10931610;32;20381;-73
2023/04/17 09:16:09;;;;;;;2.83;1.80;;;17.00;79.70;;;;;;10945253;32;20014;-73
2023/04/17 09:22:23;;;;;;;4.00;2.30;;;17.30;79.60;;;;;;10943265;32;20058;-73
2023/04/17 09:28:28;;;;;;;2.30;1.65;;;17.50;77.60;;;;;;10928426;32;20096;-73
2023/04/17 09:34:39;;;;;;;4.37;1.83;;;17.40;76.20;;;;;;10944885;32;20027;-73
2023/04/17 09:40:43;;;;;;;4.15;1.75;;;17.30;77.80;;;;;;10929320;32;20156;-73
2023/04/17 09:46:46;;;;;;;2.05;1.65;;;17.40;77.00;;;;;;10929700;32;20014;-73
2023/04/17 09:52:50;;;;;;;3.80;1.90;;;17.50;77.10;;;;;;10928700;32;20038;-73
2023/04/17 09:58:53;;;;;;;7.18;1.48;;;17.70;76.40;;;;;;10944248;32;20019;-73
2023/04/17 10:04:55;;;;;;;1.70;1.35;;;17.90;76.40;;;;;;10929118;32;20027;-73
2023/04/17 10:11:06;;;;;;;1.67;1.37;;;18.00;74.40;;;;;;10930834;32;20054;-73
2023/04/17 10:17:30;;;;;;;1.55;1.10;;;18.00;74.90;;;;;;10916796;32;20326;-73
2023/04/17 10:23:33;;;;;;;1.20;1.10;;;18.00;74.20;;;;;;10939195;32;20023;-73
2023/04/17 10:30:12;;;;;;;2.55;1.40;;;18.00;73.10;;;;;;10941855;32;20026;-73
2023/04/17 10:36:39;;;;;;;2.40;1.77;;;18.10;73.10;;;;;;10751253;33;20032;-73
2023/04/17 10:42:41;;;;;;;3.08;1.75;;;18.10;71.50;;;;;;10740286;33;20308;-73
2023/04/17 10:48:48;;;;;;;1.80;1.20;;;17.90;71.40;;;;;;10753295;33;20025;-73
2023/04/17 10:55:16;;;;;;;1.23;0.93;;;17.90;71.70;;;;;;10749509;33;20465;-73
2023/04/17 11:01:47;;;;;;;1.73;1.40;;;17.90;71.60;;;;;;10739674;33;20192;-73
2023/04/17 11:07:50;;;;;;;2.03;1.35;;;17.90;70.20;;;;;;10802707;32;20045;-72
2023/04/17 11:14:11;;;;;;;2.87;2.25;;;17.80;70.40;;;;;;10924642;32;20057;-72
2023/04/17 11:20:17;;;;;;;3.83;2.05;;;17.70;69.90;;;;;;10921682;32;20050;-72
2023/04/17 11:26:20;;;;;;;1.52;1.42;;;17.50;69.40;;;;;;10940944;32;20106;-71
2023/04/17 11:32:22;;;;;;;2.92;2.17;;;17.60;69.80;;;;;;10914024;32;20447;-72
2023/04/17 11:38:24;;;;;;;2.75;1.98;;;17.50;67.70;;;;;;10941670;32;20049;-73
2023/04/17 11:44:28;;;;;;;3.42;1.95;;;17.50;65.80;;;;;;10939883;32;20045;-73
2023/04/17 11:50:32;;;;;;;2.47;1.85;;;17.40;63.60;;;;;;10939649;32;20035;-72
2023/04/17 11:57:11;;;;;;;4.32;2.33;;;17.40;65.40;;;;;;10940456;32;20034;-73
2023/04/17 12:03:33;;;;;;;12.48;3.62;;;17.50;64.50;;;;;;10783401;32;20358;-73
2023/04/17 12:09:35;;;;;;;2.70;2.12;;;17.60;64.10;;;;;;10778347;33;20047;-72
2023/04/17 12:15:38;;;;;;;4.60;2.53;;;17.60;63.40;;;;;;10791294;32;20183;-72
2023/04/17 12:21:40;;;;;;;5.40;2.55;;;17.80;64.10;;;;;;10791979;32;20036;-71
2023/04/17 12:27:43;;;;;;;6.20;2.90;;;17.90;63.40;;;;;;10792690;32;20417;-72
2023/04/17 12:33:46;;;;;;;2.85;1.80;;;17.90;63.40;;;;;;10790656;33;20311;-71
2023/04/17 12:39:48;;;;;;;4.00;2.62;;;18.00;64.80;;;;;;10926630;32;20046;-73
2023/04/17 12:46:31;;;;;;;3.62;2.58;;;18.00;64.00;;;;;;10911297;32;20035;-72
2023/04/17 12:52:33;;;;;;;3.87;2.33;;;18.10;64.30;;;;;;10903092;32;20459;-72
2023/04/17 12:58:35;;;;;;;4.62;2.45;;;18.10;64.30;;;;;;10903982;32;20023;-72
2023/04/17 13:04:37;;;;;;;2.75;2.20;;;18.10;64.20;;;;;;10907314;32;20089;-72
2023/04/17 13:10:42;;;;;;;3.87;2.60;;;18.00;63.60;;;;;;10928142;32;20053;-73
2023/04/17 13:16:45;;;;;;;4.93;3.03;;;18.00;64.40;;;;;;10940785;32;20060;-72
2023/04/17 13:22:47;;;;;;;3.25;2.37;;;17.90;63.60;;;;;;10931161;32;20042;-72
2023/04/17 13:28:49;;;;;;;2.22;1.60;;;18.00;64.70;;;;;;10928875;32;20385;-73
2023/04/17 13:34:51;;;;;;;2.25;1.90;;;18.00;64.40;;;;;;10944199;32;20089;-73
2023/04/17 13:40:53;;;;;;;1.80;1.60;;;18.00;64.10;;;;;;10943733;32;20018;-73
2023/04/17 13:46:55;;;;;;;2.47;1.92;;;18.00;63.30;;;;;;10936216;32;20030;-72
2023/04/17 13:52:58;;;;;;;3.55;2.60;;;18.00;63.60;;;;;;10926734;32;20063;-72
2023/04/17 13:59:00;;;;;;;2.50;1.87;;;18.00;63.50;;;;;;10900114;32;20058;-72
2023/04/17 14:05:02;;;;;;;5.10;3.47;;;18.10;64.30;;;;;;10914942;32;20050;-73
2023/04/17 14:11:05;;;;;;;7.22;4.70;;;18.00;63.40;;;;;;10910940;32;20035;-72
2023/04/17 14:17:07;;;;;;;4.28;2.87;;;17.90;63.00;;;;;;10936311;32;20053;-72
2023/04/17 14:23:09;;;;;;;4.45;3.10;;;17.80;63.30;;;;;;10942898;32;20026;-72
2023/04/17 14:29:12;;;;;;;7.40;4.57;;;17.80;62.30;;;;;;10926988;32;20027;-72
2023/04/17 14:35:14;;;;;;;6.57;4.65;;;17.80;62.40;;;;;;10942755;32;20404;-73
2023/04/17 14:41:17;;;;;;;5.05;3.50;;;17.80;61.60;;;;;;10942336;32;20042;-72
2023/04/17 14:47:19;;;;;;;4.43;3.12;;;17.80;62.10;;;;;;10942163;32;20049;-72
2023/04/17 14:53:21;;;;;;;6.22;3.20;;;17.80;62.80;;;;;;10941488;32;20416;-71
2023/04/17 14:59:26;;;;;;;10.88;4.85;;;17.90;63.50;;;;;;10910700;32;20035;-72
2023/04/17 15:05:28;;;;;;;12.45;3.30;;;17.90;63.00;;;;;;10942371;32;20376;-71
2023/04/17 15:11:30;;;;;;;4.72;3.20;;;17.80;62.60;;;;;;10940254;32;20039;-72
2023/04/17 15:17:34;;;;;;;5.47;4.00;;;17.80;63.00;;;;;;10927926;32;20054;-71
2023/04/17 15:23:36;;;;;;;8.52;3.90;;;17.80;64.90;;;;;;10922974;32;20074;-73
2023/04/17 15:29:39;;;;;;;5.90;3.45;;;17.70;63.90;;;;;;10941892;32;20027;-72
2023/04/17 15:35:42;;;;;;;4.53;3.35;;;17.60;64.00;;;;;;10926996;32;20035;-72
2023/04/17 15:41:44;;;;;;;4.30;3.08;;;17.70;64.60;;;;;;10926859;32;20463;-71
2023/04/17 15:47:46;;;;;;;4.40;3.30;;;17.70;64.50;;;;;;10931823;32;20065;-71
2023/04/17 15:53:48;;;;;;;5.30;3.08;;;17.70;65.70;;;;;;10973323;27;20493;-71
2023/04/17 15:59:50;;;;;;;3.83;2.75;;;17.70;65.60;;;;;;10986264;32;20015;-72
2023/04/17 16:05:53;;;;;;;5.62;3.40;;;17.70;65.50;;;;;;10986092;32;20014;-71
2023/04/17 16:11:55;;;;;;;6.28;4.07;;;17.60;65.80;;;;;;10984093;32;20052;-72
2023/04/17 16:17:59;;;;;;;4.70;3.60;;;17.60;66.60;;;;;;10985723;32;20041;-72
2023/04/17 16:24:03;;;;;;;4.60;3.65;;;17.60;66.10;;;;;;10984637;32;20019;-73
2023/04/17 16:30:07;;;;;;;5.75;4.47;;;17.60;66.70;;;;;;10985109;32;20018;-71
2023/04/17 16:36:09;;;;;;;6.55;4.65;;;17.50;66.20;;;;;;10952773;32;20049;-72
2023/04/17 16:42:12;;;;;;;3.85;2.90;;;17.50;67.00;;;;;;10983311;32;20019;-72
2023/04/17 16:48:15;;;;;;;7.22;3.37;;;17.50;67.60;;;;;;10966751;32;20057;-71
2023/04/17 16:54:19;;;;;;;5.40;3.90;;;17.50;67.50;;;;;;10982446;32;20408;-72
2023/04/17 17:00:21;;;;;;;7.40;5.43;;;17.50;68.00;;;;;;10965633;32;20439;-72
2023/04/17 17:06:23;;;;;;;6.20;3.47;;;17.50;68.00;;;;;;10966854;32;20065;-72
2023/04/17 17:12:25;;;;;;;5.60;3.42;;;17.30;67.10;;;;;;10981882;32;20345;-73
2023/04/17 17:18:27;;;;;;;6.85;3.65;;;17.30;68.00;;;;;;10981789;32;20044;-71
2023/04/17 17:24:30;;;;;;;3.97;2.92;;;17.30;68.60;;;;;;10981754;32;20427;-71
2023/04/17 17:30:32;;;;;;;5.68;3.50;;;17.30;69.10;;;;;;10981449;32;20023;-72
2023/04/17 17:36:34;;;;;;;5.53;3.60;;;17.30;69.30;;;;;;10977333;32;20019;-71
2023/04/17 17:42:36;;;;;;;8.13;5.00;;;17.30;69.70;;;;;;10965832;32;20022;-71
2023/04/17 17:48:38;;;;;;;9.23;5.97;;;17.30;70.40;;;;;;10967247;32;20482;-71
2023/04/17 17:54:41;;;;;;;6.95;4.60;;;17.30;71.30;;;;;;10966716;32;20449;-72
2023/04/17 18:00:43;;;;;;;5.68;3.85;;;17.30;71.70;;;;;;10980365;32;20010;-71
2023/04/17 18:06:45;;;;;;;6.28;3.80;;;17.30;71.90;;;;;;10979627;32;20019;-73
2023/04/17 18:12:48;;;;;;;5.37;3.72;;;17.20;72.50;;;;;;10980043;32;20018;-73
2023/04/17 18:18:50;;;;;;;8.23;5.53;;;17.20;73.00;;;;;;10966680;32;20041;-73
2023/04/17 18:24:53;;;;;;;7.00;4.30;;;17.10;72.90;;;;;;10966246;32;20015;-73
2023/04/17 18:30:55;;;;;;;4.50;3.37;;;17.00;73.50;;;;;;10963133;32;20060;-73
2023/04/17 18:36:59;;;;;;;8.30;5.10;;;17.00;73.80;;;;;;10964929;32;20022;-73
2023/04/17 18:43:02;;;;;;;6.80;4.53;;;17.00;74.70;;;;;;10925519;32;20031;-73
2023/04/17 18:49:04;;;;;;;6.00;4.55;;;17.00;75.20;;;;;;10938195;32;20023;-73
2023/04/17 18:55:07;;;;;;;6.82;5.07;;;17.00;75.30;;;;;;10941151;32;20019;-73
2023/04/17 19:01:09;;;;;;;7.15;4.87;;;17.00;76.00;;;;;;10940981;32;20405;-73
2023/04/17 19:07:11;;;;;;;7.90;5.62;;;16.90;76.20;;;;;;10940969;32;20196;-73
2023/04/17 19:13:14;;;;;;;8.30;4.72;;;16.90;76.70;;;;;;10927479;32;20015;-72
2023/04/17 19:19:16;;;;;;;7.10;5.22;;;16.80;76.60;;;;;;10944446;32;20018;-73
2023/04/17 19:25:18;;;;;;;7.95;5.45;;;16.80;76.70;;;;;;10948392;32;20340;-72
2023/04/17 19:31:20;;;;;;;7.57;5.32;;;16.60;76.90;;;;;;10934113;32;20050;-71
2023/04/17 19:37:22;;;;;;;8.13;5.70;;;16.50;77.20;;;;;;10943981;32;20385;-72
2023/04/17 19:43:24;;;;;;;5.47;3.95;;;16.60;77.20;;;;;;10947878;32;20019;-72
2023/04/17 19:49:27;;;;;;;7.10;4.72;;;16.70;77.20;;;;;;10933678;32;20027;-71
2023/04/17 19:55:29;;;;;;;9.25;5.43;;;16.50;77.40;;;;;;10947210;32;20399;-71
2023/04/17 20:01:31;;;;;;;7.30;4.47;;;16.60;77.60;;;;;;10945156;32;20020;-72
2023/04/17 20:07:34;;;;;;;7.20;5.75;;;16.50;77.80;;;;;;10946940;32;20014;-73
2023/04/17 20:13:36;;;;;;;9.18;6.05;;;16.50;77.90;;;;;;10946749;32;20369;-73
2023/04/17 20:19:38;;;;;;;7.70;5.45;;;16.50;78.20;;;;;;10946561;32;20019;-73
2023/04/17 20:25:40;;;;;;;7.10;5.55;;;16.50;78.30;;;;;;10933003;32;20015;-73
2023/04/17 20:31:42;;;;;;;7.43;5.00;;;16.40;78.50;;;;;;10931994;32;20027;-72
2023/04/17 20:37:45;;;;;;;9.13;6.03;;;16.40;78.30;;;;;;10947266;32;20357;-72
2023/04/17 20:43:57;;;;;;;9.18;5.93;;;16.40;78.70;;;;;;10941562;32;20015;-71
2023/04/17 20:49:59;;;;;;;8.75;6.10;;;16.30;78.60;;;;;;10931690;32;20053;-71
2023/04/17 20:56:01;;;;;;;9.20;6.35;;;16.40;78.60;;;;;;10970479;32;20426;-72
2023/04/17 21:02:03;;;;;;;6.97;5.40;;;16.30;78.60;;;;;;10970601;32;20018;-71
2023/04/17 21:08:05;;;;;;;9.43;6.90;;;16.30;78.60;;;;;;10979798;32;20022;-71
2023/04/17 21:14:07;;;;;;;7.43;5.62;;;16.20;78.60;;;;;;10966540;32;20384;-71
2023/04/17 21:20:10;;;;;;;11.15;7.65;;;16.30;78.80;;;;;;10981257;32;20392;-71
2023/04/17 21:26:13;;;;;;;13.43;8.38;;;16.20;79.00;;;;;;10979227;32;20014;-71
2023/04/17 21:32:15;;;;;;;9.90;7.53;;;16.30;79.30;;;;;;10982964;32;20053;-71
2023/04/17 21:38:17;;;;;;;11.15;7.95;;;16.10;79.20;;;;;;10982742;32;20019;-71
2023/04/17 21:44:19;;;;;;;8.77;6.80;;;16.00;79.50;;;;;;10981843;32;20405;-72
2023/04/17 21:50:21;;;;;;;8.73;6.60;;;16.00;79.50;;;;;;10982127;32;20057;-73
2023/04/17 21:56:24;;;;;;;10.88;7.90;;;16.00;79.50;;;;;;10962584;32;20057;-71
2023/04/17 22:02:26;;;;;;;9.00;7.40;;;16.00;79.50;;;;;;10981070;32;20014;-71
2023/04/17 22:08:30;;;;;;;9.93;8.18;;;15.90;79.40;;;;;;10981279;32;20038;-71
2023/04/17 22:14:32;;;;;;;10.68;7.87;;;15.80;79.50;;;;;;10968806;32;20022;-71
2023/04/17 22:20:35;;;;;;;12.73;9.05;;;15.80;79.50;;;;;;10981335;32;20092;-71
2023/04/17 22:26:37;;;;;;;12.20;10.93;;;15.80;79.40;;;;;;10966069;32;20400;-71
2023/04/17 22:32:40;;;;;;;10.48;8.27;;;15.70;79.50;;;;;;10979736;32;20128;-71
2023/04/17 22:38:42;;;;;;;11.60;7.47;;;15.60;79.60;;;;;;10980746;32;20037;-71
2023/04/17 22:44:45;;;;;;;11.65;8.65;;;15.60;79.90;;;;;;10979933;32;20019;-72
2023/04/17 22:50:48;;;;;;;7.85;6.20;;;15.50;80.10;;;;;;10979546;32;20056;-72
2023/04/17 22:56:50;;;;;;;9.88;7.68;;;15.50;80.00;;;;;;10960592;32;20034;-71
2023/04/17 23:02:53;;;;;;;8.07;5.43;;;15.40;80.00;;;;;;10966733;32;20029;-71
2023/04/17 23:16:31;;;;;;;8.63;7.30;;;15.40;80.10;;;;;;10979245;32;20100;-71
2023/04/17 23:22:33;;;;;;;9.38;7.35;;;15.40;80.10;;;;;;10979773;32;20022;-71
2023/04/17 23:28:35;;;;;;;9.85;6.68;;;15.50;80.00;;;;;;10975601;32;20056;-71
2023/04/17 23:34:38;;;;;;;11.50;6.18;;;15.50;79.80;;;;;;10966149;32;20049;-71
2023/04/17 23:40:40;;;;;;;8.93;5.90;;;15.50;79.80;;;;;;10979524;32;20062;-71
2023/04/17 23:46:43;;;;;;;8.30;5.70;;;15.60;79.80;;;;;;10978412;32;20023;-71
2023/04/17 23:52:45;;;;;;;9.43;7.15;;;15.50;80.10;;;;;;10913961;27;20019;-71
2023/04/17 23:58:48;;;;;;;6.22;5.12;;;15.30;80.10;;;;;;10862187;32;20024;-71
